Time;durP1;ratioP1;P1;durP2;ratioP2;P2;SDS_P1;SDS_P2;PMS_P1;PMS_P2;Temp;Humidity;BMP_temperature;BMP_pressure;BME280_temperature;BME280_humidity;BME280_pressure;Samples;Min_cycle;Max_cycle;Signal;HPM_P1;HPM_P2
2024/03/12 00:01:09;;;;;;;;;;;;;;;-2.43;100.00;102500.31;5050018;28;19920;-70
2024/03/12 00:03:43;;;;;;;;;;;;;;;-2.44;100.00;102502.94;5050001;28;19916;-69
2024/03/12 00:06:09;;;;;;;;;;;;;;;-2.43;100.00;102502.91;5038186;28;19921;-68
2024/03/12 00:08:35;;;;;;;;;;;;;;;-2.42;100.00;102495.94;5044395;28;19921;-68
2024/03/12 00:11:00;;;;;;;;;;;;;;;-2.39;100.00;102501.09;5043517;28;20403;-69
2024/03/12 00:13:26;;;;;;;;;;;;;;;-2.40;100.00;102502.84;5044711;28;19967;-68
2024/03/12 00:15:51;;;;;;;;;;;;;;;-2.39;100.00;102507.16;5038013;28;20019;-68
2024/03/12 00:18:17;;;;;;;;;;;;;;;-2.38;100.00;102505.41;5043746;28;19956;-68
2024/03/12 00:20:44;;;;;;;;;;;;;;;-2.40;100.00;102502.84;5047108;28;20368;-69
2024/03/12 00:23:09;;;;;;;;;;;;;;;-2.42;100.00;102501.16;5035419;28;19924;-69
2024/03/12 00:25:36;;;;;;;;;;;;;;;-2.42;100.00;102503.78;5042453;28;19920;-68
2024/03/12 00:28:05;;;;;;;;;;;;;;;-2.48;100.00;102504.78;5037204;28;19927;-70
2024/03/12 00:30:31;;;;;;;;;;;;;;;-2.51;100.00;102497.88;5044949;28;20019;-68
2024/03/12 00:32:57;;;;;;;;;;;;;;;-2.54;100.00;102499.72;5046573;28;20024;-68
2024/03/12 00:35:28;;;;;;;;;;;;;;;-2.56;100.00;102501.50;5047715;28;19920;-68
2024/03/12 00:37:54;;;;;;;;;;;;;;;-2.58;100.00;102504.16;5022870;28;20364;-68
2024/03/12 00:40:20;;;;;;;;;;;;;;;-2.58;100.00;102500.69;5037576;28;19978;-70
2024/03/12 00:42:46;;;;;;;;;;;;;;;-2.61;100.00;102492.91;5047899;28;20384;-72
2024/03/12 00:45:12;;;;;;;;;;;;;;;-2.63;100.00;102500.75;5032579;28;19960;-67
2024/03/12 00:47:40;;;;;;;;;;;;;;;-2.63;100.00;102494.69;5045602;28;20351;-69
2024/03/12 00:50:07;;;;;;;;;;;;;;;-2.62;100.00;102496.41;5043639;28;20385;-68
2024/03/12 00:52:33;;;;;;;;;;;;;;;-2.62;100.00;102496.41;5045629;28;20020;-68
2024/03/12 00:55:00;;;;;;;;;;;;;;;-2.61;100.00;102495.50;5039331;28;20008;-69
2024/03/12 00:57:27;;;;;;;;;;;;;;;-2.64;100.00;102491.22;5036407;28;20400;-68
2024/03/12 00:59:52;;;;;;;;;;;;;;;-2.65;100.00;102484.28;5043212;28;20734;-67
2024/03/12 01:02:19;;;;;;;;;;;;;;;-2.66;100.00;102490.41;5043964;28;19928;-69
2024/03/12 01:04:45;;;;;;;;;;;;;;;-2.65;100.00;102486.06;5039181;28;20062;-68
2024/03/12 01:07:12;;;;;;;;;;;;;;;-2.65;100.00;102484.28;5045519;28;19925;-67
2024/03/12 01:09:40;;;;;;;;;;;;;;;-2.64;100.00;102485.16;5043007;28;19924;-68
2024/03/12 01:12:07;;;;;;;;;;;;;;;-2.61;100.00;102492.91;5037980;28;20300;-69
2024/03/12 01:14:34;;;;;;;;;;;;;;;-2.64;100.00;102495.59;5041920;28;20299;-69
2024/03/12 01:16:59;;;;;;;;;;;;;;;-2.66;100.00;102492.16;5039535;28;19972;-68
2024/03/12 01:19:26;;;;;;;;;;;;;;;-2.68;100.00;102493.94;5040343;28;19948;-69
2024/03/12 01:21:52;;;;;;;;;;;;;;;-2.69;100.00;102494.84;5023131;28;19928;-67
2024/03/12 01:24:17;;;;;;;;;;;;;;;-2.71;100.00;102494.03;5041131;28;19921;-67
2024/03/12 01:26:44;;;;;;;;;;;;;;;-2.76;100.00;102493.28;5045348;28;20379;-69
2024/03/12 01:29:10;;;;;;;;;;;;;;;-2.78;100.00;102489.84;5044256;28;19920;-71
2024/03/12 01:31:36;;;;;;;;;;;;;;;-2.82;100.00;102484.72;5048873;28;19920;-68
2024/03/12 01:34:01;;;;;;;;;;;;;;;-2.82;100.00;102479.50;5045397;28;20350;-68
2024/03/12 01:36:34;;;;;;;;;;;;;;;-2.79;100.00;102481.16;5046343;28;19943;-69
2024/03/12 01:39:08;;;;;;;;;;;;;;;-2.79;100.00;102483.78;5040134;28;20012;-69
2024/03/12 01:41:41;;;;;;;;;;;;;;;-2.80;100.00;102484.66;5041704;28;20020;-67
2024/03/12 01:44:08;;;;;;;;;;;;;;;-2.82;100.00;102495.13;5047450;28;19984;-67
2024/03/12 01:46:34;;;;;;;;;;;;;;;-2.84;100.00;102491.72;5044566;28;20339;-70
2024/03/12 01:49:00;;;;;;;;;;;;;;;-2.84;100.00;102485.63;5037990;28;19917;-68
2024/03/12 01:51:27;;;;;;;;;;;;;;;-2.85;100.00;102484.78;5042624;28;19947;-67
2024/03/12 01:53:52;;;;;;;;;;;;;;;-2.85;100.00;102478.72;5040271;28;19924;-68
2024/03/12 01:56:17;;;;;;;;;;;;;;;-2.85;100.00;102483.94;5041569;28;19921;-67
2024/03/12 01:58:44;;;;;;;;;;;;;;;-2.84;100.00;102483.88;5043448;28;19925;-67
2024/03/12 02:01:09;;;;;;;;;;;;;;;-2.82;100.00;102483.84;5041990;28;20011;-68
2024/03/12 02:03:35;;;;;;;;;;;;;;;-2.83;100.00;102482.13;5049005;28;19948;-68
2024/03/12 02:06:00;;;;;;;;;;;;;;;-2.87;100.00;102485.72;5037760;28;20527;-67
2024/03/12 02:08:25;;;;;;;;;;;;;;;-2.86;100.00;102484.81;5040834;28;19917;-68
2024/03/12 02:10:51;;;;;;;;;;;;;;;-2.87;100.00;102483.97;5042013;28;19975;-67
2024/03/12 02:13:17;;;;;;;;;;;;;;;-2.88;100.00;102487.47;5046513;28;19924;-68
2024/03/12 02:15:43;;;;;;;;;;;;;;;-2.89;100.00;102480.53;5039973;28;19928;-68
2024/03/12 02:18:08;;;;;;;;;;;;;;;-2.90;100.00;102486.59;5040809;28;19926;-69
2024/03/12 02:20:34;;;;;;;;;;;;;;;-2.90;100.00;102481.41;5036514;28;20384;-70
2024/03/12 02:22:59;;;;;;;;;;;;;;;-2.90;100.00;102481.41;5020955;28;20411;-71
2024/03/12 02:25:25;;;;;;;;;;;;;;;-2.89;100.00;102483.13;5042478;28;19917;-71
2024/03/12 02:27:50;;;;;;;;;;;;;;;-2.89;100.00;102475.31;5041042;28;19979;-70
2024/03/12 02:30:16;;;;;;;;;;;;;;;-2.88;100.00;102484.00;5041635;28;19929;-68
2024/03/12 02:32:41;;;;;;;;;;;;;;;-2.91;100.00;102482.28;5018962;28;20308;-70
2024/03/12 02:35:11;;;;;;;;;;;;;;;-2.94;100.00;102479.75;5043776;28;19928;-69
2024/03/12 02:37:38;;;;;;;;;;;;;;;-2.97;100.00;102485.03;5038235;28;19920;-69
2024/03/12 02:40:05;;;;;;;;;;;;;;;-3.01;100.00;102483.41;5038031;28;20023;-70
2024/03/12 02:42:30;;;;;;;;;;;;;;;-3.02;100.00;102484.28;5037179;28;20461;-69
2024/03/12 02:44:56;;;;;;;;;;;;;;;-3.02;100.00;102486.91;5039151;28;19921;-68
2024/03/12 02:47:22;;;;;;;;;;;;;;;-3.00;100.00;102473.81;5040506;28;20359;-68
2024/03/12 02:49:48;;;;;;;;;;;;;;;-2.99;100.00;102475.53;5043638;28;19947;-70
2024/03/12 02:52:14;;;;;;;;;;;;;;;-3.01;100.00;102483.41;5042802;28;19916;-70
2024/03/12 02:54:41;;;;;;;;;;;;;;;-2.99;100.00;102478.16;5043681;28;19927;-67
2024/03/12 02:57:08;;;;;;;;;;;;;;;-2.98;100.00;102488.53;5040664;28;19924;-67
2024/03/12 02:59:34;;;;;;;;;;;;;;;-2.97;100.00;102485.03;5036351;28;19924;-69
2024/03/12 03:02:00;;;;;;;;;;;;;;;-2.97;100.00;102489.41;5035280;28;19921;-70
2024/03/12 03:04:26;;;;;;;;;;;;;;;-3.02;100.00;102486.91;5039667;28;19917;-69
2024/03/12 03:06:52;;;;;;;;;;;;;;;-3.07;100.00;102488.75;5042387;28;20011;-69
2024/03/12 03:09:18;;;;;;;;;;;;;;;-3.10;100.00;102483.59;5045262;28;19921;-69
2024/03/12 03:11:44;;;;;;;;;;;;;;;-3.10;100.00;102487.97;5046852;28;19928;-72
2024/03/12 03:14:10;;;;;;;;;;;;;;;-3.13;100.00;102481.94;5047253;28;19928;-74
2024/03/12 03:16:35;;;;;;;;;;;;;;;-3.13;100.00;102474.09;5038920;28;19917;-69
2024/03/12 03:19:01;;;;;;;;;;;;;;;-3.11;100.00;102479.28;5043993;28;19917;-71
2024/03/12 03:21:26;;;;;;;;;;;;;;;-3.13;100.00;102489.75;5045195;28;20317;-68
2024/03/12 03:23:52;;;;;;;;;;;;;;;-3.14;100.00;102488.03;5046301;28;19917;-67
2024/03/12 03:26:18;;;;;;;;;;;;;;;-3.14;100.00;102481.97;5039335;28;19987;-68
2024/03/12 03:28:43;;;;;;;;;;;;;;;-3.15;100.00;102485.47;5043387;28;19925;-70
2024/03/12 03:31:10;;;;;;;;;;;;;;;-3.13;100.00;102481.06;5041273;28;20015;-69
2024/03/12 03:33:39;;;;;;;;;;;;;;;-3.09;100.00;102485.31;5043605;28;20411;-69
2024/03/12 03:36:04;;;;;;;;;;;;;;;-3.05;100.00;102488.72;5044810;28;19920;-69
2024/03/12 03:38:30;;;;;;;;;;;;;;;-3.01;100.00;102491.22;5028058;28;19931;-70
2024/03/12 03:40:56;;;;;;;;;;;;;;;-2.98;100.00;102485.94;5049014;28;20019;-69
2024/03/12 03:43:21;;;;;;;;;;;;;;;-2.98;100.00;102488.53;5042876;28;19978;-68
2024/03/12 03:45:47;;;;;;;;;;;;;;;-2.99;100.00;102485.97;5017414;28;19920;-68
2024/03/12 03:48:12;;;;;;;;;;;;;;;-3.04;100.00;102478.25;5043554;28;20372;-68
2024/03/12 03:50:38;;;;;;;;;;;;;;;-3.04;100.00;102483.47;5042924;28;19917;-68
2024/03/12 03:53:03;;;;;;;;;;;;;;;-3.02;100.00;102480.81;5045164;28;19921;-71
2024/03/12 03:55:28;;;;;;;;;;;;;;;-3.03;100.00;102479.09;5051631;28;20007;-69
2024/03/12 03:57:56;;;;;;;;;;;;;;;-3.04;100.00;102478.25;5035467;28;19921;-68
2024/03/12 04:00:28;;;;;;;;;;;;;;;-3.03;100.00;102479.97;5048793;28;19947;-68
2024/03/12 04:02:54;;;;;;;;;;;;;;;-3.02;100.00;102484.28;5043511;28;19952;-69
2024/03/12 04:05:21;;;;;;;;;;;;;;;-3.03;100.00;102485.19;5043447;28;19970;-69
2024/03/12 04:07:46;;;;;;;;;;;;;;;-2.99;100.00;102479.00;5035491;28;19921;-70
2024/03/12 04:10:11;;;;;;;;;;;;;;;-2.97;100.00;102484.19;5046218;28;19939;-67
2024/03/12 04:12:39;;;;;;;;;;;;;;;-2.93;100.00;102491.91;5041215;28;19921;-66
2024/03/12 04:15:05;;;;;;;;;;;;;;;-2.92;100.00;102484.94;5045547;28;19970;-69
2024/03/12 04:17:31;;;;;;;;;;;;;;;-2.93;100.00;102491.91;5042243;28;20385;-67
2024/03/12 04:19:56;;;;;;;;;;;;;;;-2.92;100.00;102487.53;5045460;28;19928;-66
2024/03/12 04:22:21;;;;;;;;;;;;;;;-2.92;100.00;102485.78;5044404;28;20367;-68
2024/03/12 04:24:47;;;;;;;;;;;;;;;-2.93;100.00;102488.44;5040039;28;19928;-71
2024/03/12 04:27:15;;;;;;;;;;;;;;;-2.91;100.00;102484.91;5051278;28;20321;-69
2024/03/12 04:29:41;;;;;;;;;;;;;;;-2.86;100.00;102483.06;5041671;28;20023;-70
2024/03/12 04:32:06;;;;;;;;;;;;;;;-2.82;100.00;102484.72;5047781;28;20419;-70
2024/03/12 04:34:33;;;;;;;;;;;;;;;-2.77;100.00;102492.41;5049383;28;19923;-70
2024/03/12 04:36:59;;;;;;;;;;;;;;;-2.73;100.00;102488.00;5040132;28;19956;-67
2024/03/12 04:39:30;;;;;;;;;;;;;;;-2.69;100.00;102484.41;5048190;28;19968;-70
2024/03/12 04:42:04;;;;;;;;;;;;;;;-2.66;100.00;102484.34;5039722;28;19935;-73
2024/03/12 04:44:31;;;;;;;;;;;;;;;-2.61;100.00;102485.94;5039089;28;19924;-73
2024/03/12 04:46:56;;;;;;;;;;;;;;;-2.56;100.00;102488.47;5039079;28;20015;-71
2024/03/12 04:49:21;;;;;;;;;;;;;;;-2.51;100.00;102486.59;5041243;28;20007;-71
2024/03/12 04:51:47;;;;;;;;;;;;;;;-2.48;100.00;102483.91;5046106;28;20299;-70
2024/03/12 04:54:12;;;;;;;;;;;;;;;-2.45;100.00;102481.22;5044173;28;19920;-70
2024/03/12 04:56:37;;;;;;;;;;;;;;;-2.42;100.00;102478.53;5043103;28;19927;-72
2024/03/12 04:59:03;;;;;;;;;;;;;;;-2.39;100.00;102473.25;5046265;28;19917;-72
2024/03/12 05:01:28;;;;;;;;;;;;;;;-2.33;100.00;102473.06;5037544;28;19971;-71
2024/03/12 05:03:54;;;;;;;;;;;;;;;-2.28;100.00;102476.47;5045463;28;19917;-70
2024/03/12 05:06:19;;;;;;;;;;;;;;;-2.22;100.00;102481.50;5036764;28;19927;-67
2024/03/12 05:08:44;;;;;;;;;;;;;;;-2.14;100.00;102483.91;5043920;28;20007;-68
2024/03/12 05:11:10;;;;;;;;;;;;;;;-2.09;100.00;102481.19;5019499;28;19925;-69
2024/03/12 05:13:35;;;;;;;;;;;;;;;-2.03;100.00;102483.63;5040922;28;19920;-67
2024/03/12 05:16:01;;;;;;;;;;;;;;;-1.94;100.00;102480.81;5038181;28;20357;-68
2024/03/12 05:18:27;;;;;;;;;;;;;;;-1.87;100.00;102482.34;5034435;28;19956;-68
2024/03/12 05:20:52;;;;;;;;;;;;;;;-1.81;100.00;102470.88;5037474;28;19963;-69
2024/03/12 05:23:18;;;;;;;;;;;;;;;-1.77;100.00;102483.81;5035394;28;20697;-69
2024/03/12 05:25:46;;;;;;;;;;;;;;;-1.71;100.00;102478.44;5044552;28;19963;-70
2024/03/12 05:28:12;;;;;;;;;;;;;;;-1.67;100.00;102485.28;5043568;28;19931;-65
2024/03/12 05:30:40;;;;;;;;;;;;;;;-1.65;99.42;102483.47;5041404;28;19926;-68
2024/03/12 05:33:09;;;;;;;;;;;;;;;-1.63;99.08;102486.91;5041020;28;19921;-67
2024/03/12 05:35:35;;;;;;;;;;;;;;;-1.60;99.01;102486.81;5039482;28;19923;-70
2024/03/12 05:38:11;;;;;;;;;;;;;;;-1.57;98.75;102478.88;5075269;28;19925;-66
2024/03/12 05:40:43;;;;;;;;;;;;;;;-1.53;98.48;102482.28;5043484;28;20447;-68
2024/03/12 05:48:39;;;;;;;;;;;;;;;-1.36;97.68;102485.28;5041071;28;20318;-72
2024/03/12 05:51:04;;;;;;;;;;;;;;;-1.31;98.09;102487.75;5037229;28;20016;-71
2024/03/12 05:53:30;;;;;;;;;;;;;;;-1.29;97.39;102483.34;5032871;28;19917;-74
2024/03/12 05:55:55;;;;;;;;;;;;;;;-1.28;97.18;102487.66;5042362;28;19917;-70
2024/03/12 05:58:21;;;;;;;;;;;;;;;-1.25;96.97;102484.94;5037853;28;19932;-71
2024/03/12 06:00:47;;;;;;;;;;;;;;;-1.22;96.75;102486.63;5047573;28;19927;-70
2024/03/12 06:03:12;;;;;;;;;;;;;;;-1.20;96.08;102487.44;5038648;28;20307;-68
2024/03/12 06:05:38;;;;;;;;;;;;;;;-1.17;95.75;102485.56;5039567;28;19964;-71
2024/03/12 06:08:04;;;;;;;;;;;;;;;-1.14;95.81;102485.50;5013597;28;19929;-66
2024/03/12 06:10:29;;;;;;;;;;;;;;;-1.10;94.85;102481.91;5037118;28;19927;-69
2024/03/12 06:12:55;;;;;;;;;;;;;;;-1.07;94.51;102487.03;5041615;28;20382;-71
2024/03/12 06:15:20;;;;;;;;;;;;;;;-1.02;94.67;102485.13;5039879;28;19923;-68
2024/03/12 06:17:46;;;;;;;;;;;;;;;-1.02;93.63;102487.75;5044135;28;19970;-70
2024/03/12 06:20:15;;;;;;;;;;;;;;;-0.94;93.43;102482.28;5040640;28;19979;-68
2024/03/12 06:22:43;;;;;;;;;;;;;;;-0.87;92.70;102482.94;5036909;28;19932;-69
2024/03/12 06:25:10;;;;;;;;;;;;;;;-0.81;92.44;102482.78;5025285;28;19921;-67
2024/03/12 06:27:38;;;;;;;;;;;;;;;-0.77;91.08;102479.16;5041799;28;19932;-69
2024/03/12 06:30:03;;;;;;;;;;;;;;;-0.70;91.40;102488.50;5039636;28;20405;-68
2024/03/12 06:32:31;;;;;;;;;;;;;;;-0.64;90.70;102490.94;5041039;28;19951;-71
2024/03/12 06:34:57;;;;;;;;;;;;;;;-0.60;89.84;102487.31;5049007;28;19921;-69
2024/03/12 06:37:23;;;;;;;;;;;;;;;-0.53;89.37;102488.00;5048374;28;19928;-65
2024/03/12 06:39:48;;;;;;;;;;;;;;;-0.49;87.78;102481.75;5032285;28;20301;-69
2024/03/12 06:42:19;;;;;;;;;;;;;;;-0.47;85.85;102487.78;5047155;28;19928;-67
2024/03/12 06:44:45;;;;;;;;;;;;;;;-0.37;87.05;102486.56;5042157;28;19924;-66
2024/03/12 06:47:10;;;;;;;;;;;;;;;-0.32;85.77;102480.28;5042361;28;20368;-67
2024/03/12 06:49:44;;;;;;;;;;;;;;;-0.25;85.87;102478.31;5044018;28;20327;-69
2024/03/12 06:52:10;;;;;;;;;;;;;;;-0.18;86.08;102478.97;5041094;28;19920;-67
2024/03/12 06:54:36;;;;;;;;;;;;;;;-0.17;83.04;102470.22;5041383;28;19917;-65
2024/03/12 06:57:04;;;;;;;;;;;;;;;-0.13;83.53;102470.03;5054490;28;19924;-71
2024/03/12 06:59:31;;;;;;;;;;;;;;;-0.04;84.50;102468.88;5041863;28;20385;-71
2024/03/12 07:01:57;;;;;;;;;;;;;;;0.03;84.80;102472.16;5036607;28;19921;-69
2024/03/12 07:04:23;;;;;;;;;;;;;;;0.09;85.52;102477.16;5038007;28;19924;-69
2024/03/12 07:06:51;;;;;;;;;;;;;;;0.14;82.99;102470.84;5042367;28;20729;-71
2024/03/12 07:09:26;;;;;;;;;;;;;;;0.23;84.11;102473.13;5045170;28;19930;-68
2024/03/12 07:11:58;;;;;;;;;;;;;;;0.40;84.79;102471.69;5045696;28;20015;-68
2024/03/12 07:14:27;;;;;;;;;;;;;;;0.53;84.62;102467.69;5039372;28;19940;-66
2024/03/12 07:16:52;;;;;;;;;;;;;;;0.60;81.01;102470.06;5047694;28;20028;-66
2024/03/12 07:19:19;;;;;;;;;;;;;;;0.71;81.14;102474.03;5042920;28;19956;-69
2024/03/12 07:21:45;;;;;;;;;;;;;;;0.81;80.67;102471.00;5046664;28;19921;-67
2024/03/12 07:24:12;;;;;;;;;;;;;;;0.86;79.54;102476.06;5045212;28;19996;-69
2024/03/12 07:26:38;;;;;;;;;;;;;;;0.90;76.85;102470.66;5075911;28;20296;-68
2024/03/12 07:29:06;;;;;;;;;;;;;;;0.95;79.00;102470.50;5046743;28;19921;-71
2024/03/12 07:31:33;;;;;;;;;;;;;;;1.00;78.39;102467.69;5046271;28;19973;-70
2024/03/12 07:33:59;;;;;;;;;;;;;;;1.02;77.42;102477.19;5042492;28;19917;-66
2024/03/12 07:36:24;;;;;;;;;;;;;;;1.02;76.99;102464.09;5043532;28;19928;-69
2024/03/12 07:38:49;;;;;;;;;;;;;;;0.98;72.96;102469.50;5045633;28;19923;-68
2024/03/12 07:41:15;;;;;;;;;;;;;;;1.01;73.83;102474.63;5044422;28;19921;-69
2024/03/12 07:43:40;;;;;;;;;;;;;;;1.00;71.31;102480.81;5037431;28;20079;-66
2024/03/12 07:46:07;;;;;;;;;;;;;;;0.97;69.69;102480.94;5048331;28;19921;-66
2024/03/12 07:48:32;;;;;;;;;;;;;;;0.99;69.50;102473.84;5037841;28;20310;-69
2024/03/12 07:50:58;;;;;;;;;;;;;;;1.00;70.22;102475.56;5041655;28;20019;-69
2024/03/12 07:53:28;;;;;;;;;;;;;;;1.04;69.79;102477.16;5044053;28;19917;-66
2024/03/12 07:56:05;;;;;;;;;;;;;;;1.11;69.02;102481.22;5041455;28;19920;-68
2024/03/12 07:58:35;;;;;;;;;;;;;;;1.21;68.66;102474.72;5061534;28;20308;-66
2024/03/12 08:01:01;;;;;;;;;;;;;;;1.25;68.58;102478.94;5040342;28;19917;-66
2024/03/12 08:03:26;;;;;;;;;;;;;;;0.58;69.53;102339.94;5041630;28;20372;-69
2024/03/12 08:05:52;;;;;;;;;;;;;;;1.40;68.12;102467.81;5028166;28;19920;-70
2024/03/12 08:08:18;;;;;;;;;;;;;;;1.46;67.88;102472.84;5017730;28;19925;-72
2024/03/12 08:10:44;;;;;;;;;;;;;;;1.60;70.58;102469.63;5038522;28;19994;-70
2024/03/12 08:13:10;;;;;;;;;;;;;;;1.64;68.83;102471.19;5038656;28;19921;-69
2024/03/12 08:15:35;;;;;;;;;;;;;;;1.73;68.65;102464.72;5033473;28;19963;-69
2024/03/12 08:18:01;;;;;;;;;;;;;;;1.85;67.98;102472.09;5042519;28;19921;-66
2024/03/12 08:20:27;;;;;;;;;;;;;;;1.97;67.15;102465.44;5033678;28;19924;-67
2024/03/12 08:22:52;;;;;;;;;;;;;;;2.00;65.20;102471.41;5045832;28;19962;-70
2024/03/12 08:25:18;;;;;;;;;;;;;;;2.05;67.33;102469.47;5039572;28;19921;-70
2024/03/12 08:27:48;;;;;;;;;;;;;;;2.13;64.32;102472.63;5043414;28;19920;-70
2024/03/12 08:30:15;;;;;;;;;;;;;;;2.22;67.47;102473.13;5040624;28;19921;-72
2024/03/12 08:32:41;;;;;;;;;;;;;;;2.24;65.09;102466.03;5044881;28;19920;-68
2024/03/12 08:35:08;;;;;;;;;;;;;;;2.27;63.92;102466.75;5040063;28;19943;-73
2024/03/12 08:37:35;;;;;;;;;;;;;;;2.39;66.80;102470.63;5041676;28;19928;-69
2024/03/12 08:40:00;;;;;;;;;;;;;;;2.42;66.08;102466.06;5042795;28;19924;-70
2024/03/12 08:42:27;;;;;;;;;;;;;;;2.37;65.30;102467.22;5041886;28;19917;-69
2024/03/12 08:44:53;;;;;;;;;;;;;;;2.45;65.54;102459.81;5036718;28;19921;-70
2024/03/12 08:47:19;;;;;;;;;;;;;;;2.46;62.85;102445.75;5045645;28;19917;-68
2024/03/12 08:49:44;;;;;;;;;;;;;;;2.59;65.31;102452.16;5043274;28;20406;-67
2024/03/12 08:52:09;;;;;;;;;;;;;;;2.68;65.25;102446.50;5042486;28;20343;-68
2024/03/12 08:54:35;;;;;;;;;;;;;;;2.59;61.97;102446.03;5042348;28;19951;-69
2024/03/12 08:57:01;;;;;;;;;;;;;;;2.56;62.50;102439.13;5038475;28;19921;-67
2024/03/12 08:59:26;;;;;;;;;;;;;;;2.68;62.85;102443.84;5047262;28;19971;-68
2024/03/12 09:01:57;;;;;;;;;;;;;;;2.83;63.27;102449.31;5042315;28;19921;-66
2024/03/12 09:04:22;;;;;;;;;;;;;;;2.98;61.23;102443.34;5038564;28;20305;-67
2024/03/12 09:06:48;;;;;;;;;;;;;;;3.07;61.11;102442.91;5039138;28;19947;-66
2024/03/12 09:09:15;;;;;;;;;;;;;;;3.19;61.31;102437.06;5035435;28;19921;-68
2024/03/12 09:11:41;;;;;;;;;;;;;;;3.28;60.04;102436.59;5039102;28;19921;-68
2024/03/12 09:14:06;;;;;;;;;;;;;;;3.38;59.53;102437.84;5046012;28;19928;-67
2024/03/12 09:16:32;;;;;;;;;;;;;;;3.41;61.26;102432.44;5045905;28;19960;-67
2024/03/12 09:18:57;;;;;;;;;;;;;;;3.43;61.82;102433.22;5044094;28;19921;-67
2024/03/12 09:21:23;;;;;;;;;;;;;;;3.55;62.01;102430.91;5023845;28;19940;-70
2024/03/12 09:23:48;;;;;;;;;;;;;;;3.61;60.72;102427.97;5041181;28;19921;-69
2024/03/12 09:26:13;;;;;;;;;;;;;;;3.70;60.71;102419.59;5035500;28;19920;-68
2024/03/12 09:28:48;;;;;;;;;;;;;;;3.78;60.11;102419.22;5088978;27;19977;-67
2024/03/12 09:31:14;;;;;;;;;;;;;;;3.88;60.68;102423.94;5052184;28;19964;-68
2024/03/12 09:33:39;;;;;;;;;;;;;;;3.93;58.77;102419.25;5054331;28;19979;-71
2024/03/12 09:36:04;;;;;;;;;;;;;;;3.99;59.69;102426.84;5061578;28;20396;-67
2024/03/12 09:38:30;;;;;;;;;;;;;;;4.04;58.37;102427.47;5057658;28;19925;-67
2024/03/12 09:40:59;;;;;;;;;;;;;;;4.15;56.86;102426.06;5058531;28;19925;-67
2024/03/12 09:43:28;;;;;;;;;;;;;;;4.15;56.29;102418.16;5056771;28;19921;-69
2024/03/12 09:45:54;;;;;;;;;;;;;;;4.21;58.17;102417.81;5046143;28;19928;-67
2024/03/12 09:48:21;;;;;;;;;;;;;;;4.26;59.90;102413.16;5054445;28;20353;-68
2024/03/12 09:50:49;;;;;;;;;;;;;;;4.28;58.81;102408.66;5028483;28;19974;-69
2024/03/12 09:53:14;;;;;;;;;;;;;;;4.25;57.55;102414.09;5054220;28;19943;-69
2024/03/12 09:55:40;;;;;;;;;;;;;;;4.18;56.82;102400.38;5061746;28;19929;-69
2024/03/12 09:58:09;;;;;;;;;;;;;;;4.14;59.01;102390.09;5057488;28;19931;-69
2024/03/12 10:00:35;;;;;;;;;;;;;;;4.20;59.83;102400.31;5057359;28;19921;-69
2024/03/12 10:03:00;;;;;;;;;;;;;;;4.26;58.44;102392.06;5032375;28;20317;-68
2024/03/12 10:05:27;;;;;;;;;;;;;;;4.20;57.22;102379.22;5057195;28;19921;-66
2024/03/12 10:08:15;;;;;;;;;;;;;;;4.12;57.45;102382.25;5051387;28;20353;-70
2024/03/12 10:10:43;;;;;;;;;;;;;;;4.09;57.03;102386.84;5056486;28;19925;-67
2024/03/12 10:13:14;;;;;;;;;;;;;;;4.19;57.48;102380.13;5060442;28;19935;-66
2024/03/12 10:15:59;;;;;;;;;;;;;;;4.32;57.13;102386.44;5022461;28;19968;-68
2024/03/12 10:18:29;;;;;;;;;;;;;;;4.35;54.83;102379.25;5057158;28;19927;-69
2024/03/12 10:20:58;;;;;;;;;;;;;;;4.37;54.97;102371.25;5060954;28;19921;-68
2024/03/12 10:23:25;;;;;;;;;;;;;;;4.43;56.83;102386.75;5061699;28;20366;-68
2024/03/12 10:25:51;;;;;;;;;;;;;;;4.47;55.29;102375.06;5061248;28;20324;-71
2024/03/12 10:28:27;;;;;;;;;;;;;;;4.43;54.82;102381.47;5058354;28;19934;-68
2024/03/12 10:30:53;;;;;;;;;;;;;;;4.38;55.13;102372.94;5057889;28;20447;-67
2024/03/12 10:33:20;;;;;;;;;;;;;;;4.33;55.09;102370.53;5053324;28;19929;-68
2024/03/12 10:35:46;;;;;;;;;;;;;;;4.32;53.80;102368.84;5052158;28;19925;-67
2024/03/12 10:38:24;;;;;;;;;;;;;;;4.23;54.79;102366.69;5054610;28;19937;-67
2024/03/12 10:40:50;;;;;;;;;;;;;;;4.24;55.95;102372.81;5030635;28;19925;-69
2024/03/12 10:43:20;;;;;;;;;;;;;;;4.15;54.90;102366.28;5042537;28;20028;-67
2024/03/12 10:45:45;;;;;;;;;;;;;;;4.09;54.18;102363.13;5043812;28;20008;-68
2024/03/12 10:48:11;;;;;;;;;;;;;;;4.14;55.80;102363.72;5043172;28;20387;-68
2024/03/12 10:50:38;;;;;;;;;;;;;;;4.16;55.59;102367.97;5043233;28;20293;-67
2024/03/12 10:53:04;;;;;;;;;;;;;;;4.28;55.68;102355.91;5046620;28;19971;-68
2024/03/12 10:55:33;;;;;;;;;;;;;;;4.46;55.25;102359.34;5037321;28;19970;-68
2024/03/12 10:58:00;;;;;;;;;;;;;;;4.54;54.90;102363.25;5027330;28;20345;-68
2024/03/12 11:00:26;;;;;;;;;;;;;;;4.42;53.80;102368.34;5045710;28;19928;-68
2024/03/12 11:02:53;;;;;;;;;;;;;;;4.25;53.71;102367.47;5050318;28;19925;-67
2024/03/12 11:05:20;;;;;;;;;;;;;;;4.30;54.01;102369.84;5049492;28;20051;-69
2024/03/12 11:07:45;;;;;;;;;;;;;;;4.35;55.00;102360.78;5048610;28;19925;-67
2024/03/12 11:10:12;;;;;;;;;;;;;;;4.41;54.10;102356.94;5046622;28;20011;-69
2024/03/12 11:12:37;;;;;;;;;;;;;;;4.49;54.81;102348.59;5048232;28;20027;-68
2024/03/12 11:15:04;;;;;;;;;;;;;;;4.51;54.26;102347.59;5056221;28;20010;-71
2024/03/12 11:17:31;;;;;;;;;;;;;;;4.41;53.95;102354.31;5046213;28;19924;-72
2024/03/12 11:20:00;;;;;;;;;;;;;;;4.36;54.29;102340.53;5046045;28;20024;-70
2024/03/12 11:22:27;;;;;;;;;;;;;;;4.46;54.79;102341.72;5044172;28;19925;-70
2024/03/12 11:24:52;;;;;;;;;;;;;;;4.38;53.91;102335.16;5046643;28;19927;-73
2024/03/12 11:27:25;;;;;;;;;;;;;;;4.27;54.25;102333.09;5049675;28;20400;-71
2024/03/12 11:29:59;;;;;;;;;;;;;;;4.26;54.72;102336.69;5044840;28;19990;-69
2024/03/12 11:32:29;;;;;;;;;;;;;;;4.26;54.77;102331.41;5043807;28;19924;-71
2024/03/12 11:34:54;;;;;;;;;;;;;;;4.22;54.06;102327.22;5047699;28;20564;-69
2024/03/12 11:37:20;;;;;;;;;;;;;;;4.28;55.05;102330.38;5047120;28;20023;-70
2024/03/12 11:39:45;;;;;;;;;;;;;;;4.33;54.64;102340.66;5043365;28;19925;-69
2024/03/12 11:42:11;;;;;;;;;;;;;;;4.36;54.44;102340.53;5059811;28;20347;-65
2024/03/12 11:44:44;;;;;;;;;;;;;;;4.33;54.48;102327.47;5045237;28;19925;-68
2024/03/12 11:47:28;;;;;;;;;;;;;;;4.33;54.41;102319.56;5045364;28;19947;-69
2024/03/12 11:49:54;;;;;;;;;;;;;;;4.39;54.45;102316.63;5037784;28;20510;-68
2024/03/12 11:52:23;;;;;;;;;;;;;;;4.44;54.28;102314.56;5038575;28;19936;-69
2024/03/12 11:54:48;;;;;;;;;;;;;;;4.55;54.93;102312.19;5034509;28;20601;-69
2024/03/12 11:57:30;;;;;;;;;;;;;;;4.58;53.66;102306.72;5034661;28;20384;-72
2024/03/12 11:59:55;;;;;;;;;;;;;;;4.56;54.16;102298.03;5034236;28;19978;-69
2024/03/12 12:02:23;;;;;;;;;;;;;;;4.55;54.40;102298.13;5043748;28;19925;-69
2024/03/12 12:04:51;;;;;;;;;;;;;;;4.57;53.47;102299.75;5028244;28;19932;-67
2024/03/12 12:07:20;;;;;;;;;;;;;;;4.63;54.10;102294.16;5043166;28;19925;-67
2024/03/12 12:09:46;;;;;;;;;;;;;;;4.63;55.25;102294.16;5044446;28;20316;-68
2024/03/12 12:12:14;;;;;;;;;;;;;;;4.67;53.39;102289.53;5048478;28;19976;-68
2024/03/12 12:14:42;;;;;;;;;;;;;;;4.71;54.01;102285.78;5041470;28;19921;-68
2024/03/12 12:17:09;;;;;;;;;;;;;;;4.71;54.05;102290.22;5039239;28;19925;-72
2024/03/12 12:19:34;;;;;;;;;;;;;;;4.73;54.02;102288.34;5035888;28;20302;-68
2024/03/12 12:21:59;;;;;;;;;;;;;;;4.73;54.12;102285.69;5039972;28;20019;-70
2024/03/12 12:24:25;;;;;;;;;;;;;;;4.66;53.89;102283.41;5035980;28;19925;-68
2024/03/12 12:26:53;;;;;;;;;;;;;;;4.63;53.16;102280.94;5033334;28;20031;-67
2024/03/12 12:29:23;;;;;;;;;;;;;;;4.65;53.67;102283.50;5032768;28;19929;-67
2024/03/12 12:31:51;;;;;;;;;;;;;;;4.68;53.66;102285.13;5032962;28;20334;-69
2024/03/12 12:34:17;;;;;;;;;;;;;;;4.74;53.89;102280.34;5034997;28;19925;-68
2024/03/12 12:36:44;;;;;;;;;;;;;;;4.80;53.46;102273.84;5070977;28;19967;-68
2024/03/12 12:39:11;;;;;;;;;;;;;;;4.86;52.88;102269.06;5034676;28;19925;-68
2024/03/12 12:41:42;;;;;;;;;;;;;;;4.90;52.59;102262.66;5039061;28;20011;-67